Time;durP1;ratioP1;P1;durP2;ratioP2;P2;SDS_P1;SDS_P2;PMS_P1;PMS_P2;Temp;Humidity;BMP_temperature;BMP_pressure;BME280_temperature;BME280_humidity;BME280_pressure;Samples;Min_cycle;Max_cycle;Signal;HPM_P1;HPM_P2
2022/06/30 00:00:06;;;;;;;0.40;0.20;;;;;;;20.59;100.00;99762.72;5032514;28;20537;-53
2022/06/30 00:02:36;;;;;;;0.40;0.20;;;;;;;20.77;100.00;99758.56;5032993;28;20444;-52
2022/06/30 00:05:04;;;;;;;0.50;0.40;;;;;;;20.95;100.00;99758.94;5032693;28;20472;-53
2022/06/30 00:07:30;;;;;;;0.40;0.20;;;;;;;21.03;100.00;99764.59;5032865;28;20455;-53
2022/06/30 00:09:56;;;;;;;0.40;0.20;;;;;;;21.05;100.00;99767.16;5032632;28;20448;-53
2022/06/30 00:12:23;;;;;;;0.50;0.20;;;;;;;20.91;100.00;99771.84;5032691;28;20452;-53
2022/06/30 00:14:49;;;;;;;0.40;0.20;;;;;;;20.90;100.00;99772.81;5032681;28;20491;-53
2022/06/30 00:17:16;;;;;;;0.40;0.20;;;;;;;20.89;100.00;99771.09;5032760;28;20527;-54
2022/06/30 00:19:45;;;;;;;0.40;0.20;;;;;;;20.80;100.00;99769.13;5032432;28;20447;-54
2022/06/30 00:22:12;;;;;;;0.40;0.20;;;;;;;20.88;100.00;99772.09;5032863;28;20905;-53
2022/06/30 00:24:39;;;;;;;0.40;0.20;;;;;;;20.59;100.00;99768.13;5019314;28;20581;-53
2022/06/30 00:27:06;;;;;;;0.40;0.30;;;;;;;20.53;100.00;99763.19;5032314;28;20452;-53
2022/06/30 00:29:32;;;;;;;0.40;0.20;;;;;;;20.66;100.00;99761.25;5032413;28;20534;-53
2022/06/30 00:31:59;;;;;;;0.40;0.20;;;;;;;20.59;100.00;99768.13;5032465;28;20452;-53
2022/06/30 00:34:25;;;;;;;0.40;0.20;;;;;;;20.32;100.00;99771.09;5032143;28;21002;-54
2022/06/30 00:36:52;;;;;;;0.40;0.30;;;;;;;20.47;100.00;99769.94;5032444;28;20452;-53
2022/06/30 00:39:18;;;;;;;0.40;0.20;;;;;;;20.41;100.00;99763.16;5032239;28;20455;-53
2022/06/30 00:41:45;;;;;;;0.40;0.20;;;;;;;20.53;100.00;99760.50;5032123;28;20993;-54
2022/06/30 00:44:13;;;;;;;0.40;0.20;;;;;;;20.52;100.00;99756.06;5032207;28;20467;-54
2022/06/30 00:46:39;;;;;;;0.40;0.20;;;;;;;20.49;100.00;99759.88;5023757;28;20462;-54
2022/06/30 00:49:07;;;;;;;0.40;0.20;;;;;;;20.75;100.00;99767.78;5031248;28;20454;-53
2022/06/30 00:51:34;;;;;;;0.40;0.20;;;;;;;20.38;100.00;99770.63;5032251;28;20447;-54
2022/06/30 00:54:02;;;;;;;0.40;0.20;;;;;;;20.45;100.00;99766.50;5026374;28;20471;-54
2022/06/30 00:56:30;;;;;;;0.40;0.20;;;;;;;20.21;100.00;99766.53;5032078;28;20942;-54
2022/06/30 00:59:01;;;;;;;0.40;0.20;;;;;;;20.34;100.00;99769.16;5032068;28;20566;-54
2022/06/30 01:01:29;;;;;;;0.40;0.20;;;;;;;20.39;100.00;99764.22;5034383;28;20493;-53
2022/06/30 01:03:56;;;;;;;0.40;0.20;;;;;;;20.48;100.00;99770.81;5036120;28;21050;-54
2022/06/30 01:06:23;;;;;;;0.40;0.20;;;;;;;20.32;100.00;99761.16;5035984;28;20929;-53
2022/06/30 01:08:50;;;;;;;0.40;0.20;;;;;;;20.20;100.00;99764.81;5035911;28;20455;-53
2022/06/30 01:14:02;;;;;;;0.40;0.20;;;;;;;20.18;100.00;99768.59;5036054;28;20469;-52
2022/06/30 01:16:29;;;;;;;0.40;0.20;;;;;;;20.09;100.00;99767.47;5035835;28;20559;-52
2022/06/30 01:18:56;;;;;;;0.40;0.20;;;;;;;20.19;100.00;99768.50;5035853;28;20475;-53
2022/06/30 01:21:27;;;;;;;0.40;0.20;;;;;;;20.04;100.00;99773.22;5035557;28;20874;-54
2022/06/30 01:23:55;;;;;;;0.40;0.20;;;;;;;19.98;100.00;99770.97;5025503;28;20567;-54
2022/06/30 01:26:25;;;;;;;0.40;0.20;;;;;;;19.98;100.00;99770.97;5034368;28;20454;-54
2022/06/30 01:28:51;;;;;;;0.40;0.20;;;;;;;19.90;100.00;99773.41;5035727;28;20454;-53
2022/06/30 01:31:18;;;;;;;0.40;0.20;;;;;;;20.18;100.00;99768.59;5035502;28;20475;-53
2022/06/30 01:33:45;;;;;;;0.40;0.20;;;;;;;20.10;100.00;99772.75;5036020;28;20475;-51
2022/06/30 01:36:11;;;;;;;0.40;0.20;;;;;;;20.20;100.00;99772.91;5035781;28;20451;-50
2022/06/30 01:38:38;;;;;;;0.40;0.20;;;;;;;20.22;100.00;99772.78;5035534;28;20902;-50
2022/06/30 01:41:04;;;;;;;0.40;0.20;;;;;;;20.15;100.00;99771.53;5035405;28;20487;-50
2022/06/30 01:43:30;;;;;;;0.40;0.20;;;;;;;20.02;100.00;99777.03;5035396;28;21018;-50
2022/06/30 01:45:57;;;;;;;0.40;0.20;;;;;;;19.98;100.00;99765.56;5034073;28;20530;-50
2022/06/30 01:48:23;;;;;;;0.40;0.20;;;;;;;20.12;100.00;99767.22;5028361;28;20451;-50
2022/06/30 01:50:50;;;;;;;0.40;0.20;;;;;;;20.05;100.00;99772.25;5035153;28;20957;-50
2022/06/30 01:53:16;;;;;;;0.40;0.20;;;;;;;19.90;100.00;99773.41;5029850;28;21012;-50
2022/06/30 01:55:43;;;;;;;0.40;0.30;;;;;;;19.81;100.00;99774.09;5035016;28;20451;-50
2022/06/30 01:58:09;;;;;;;0.40;0.20;;;;;;;19.75;100.00;99761.94;5035119;28;20444;-50
2022/06/30 02:00:36;;;;;;;0.40;0.20;;;;;;;19.93;100.00;99758.81;5035189;28;20488;-51
2022/06/30 02:03:02;;;;;;;0.40;0.20;;;;;;;19.91;100.00;99760.78;5036211;28;21022;-52
2022/06/30 02:05:29;;;;;;;1.57;1.47;;;;;;;19.78;100.00;99764.41;5035174;28;20466;-50
2022/06/30 02:07:55;;;;;;;0.40;0.20;;;;;;;19.55;100.00;99761.69;5035297;28;20447;-50
2022/06/30 02:10:23;;;;;;;0.40;0.20;;;;;;;19.56;100.00;99769.66;5008721;28;20831;-50
2022/06/30 02:12:51;;;;;;;0.40;0.20;;;;;;;19.51;100.00;99763.72;5033616;28;20455;-51
2022/06/30 02:15:24;;;;;;;0.40;0.20;;;;;;;19.59;100.00;99766.72;5034848;28;20451;-51
2022/06/30 02:17:53;;;;;;;0.40;0.20;;;;;;;19.70;100.00;99757.84;5034841;28;20463;-51
2022/06/30 02:20:21;;;;;;;0.40;0.20;;;;;;;19.71;100.00;99760.41;5034873;28;20888;-51
2022/06/30 02:22:49;;;;;;;0.40;0.20;;;;;;;19.53;100.00;99765.31;5032936;28;21013;-50
2022/06/30 02:25:16;;;;;;;0.40;0.20;;;;;;;19.63;100.00;99762.84;5023965;28;20448;-50
2022/06/30 02:27:42;;;;;;;0.40;0.20;;;;;;;19.57;100.00;99763.28;5035033;28;20454;-50
2022/06/30 02:30:10;;;;;;;0.40;0.20;;;;;;;19.55;100.00;99761.69;5034688;28;20471;-50
2022/06/30 02:32:36;;;;;;;0.40;0.20;;;;;;;19.56;100.00;99752.63;5034737;28;20486;-50
2022/06/30 02:35:03;;;;;;;2.30;1.47;;;;;;;19.45;100.00;99753.38;5034599;28;20471;-50
2022/06/30 02:37:30;;;;;;;0.40;0.20;;;;;;;19.47;100.00;99757.69;5034366;28;20448;-50
2022/06/30 02:39:56;;;;;;;0.40;0.20;;;;;;;19.27;100.00;99752.91;5034659;28;20447;-50
2022/06/30 02:42:23;;;;;;;0.40;0.20;;;;;;;19.47;100.00;99744.22;5034131;28;20498;-50
2022/06/30 02:44:49;;;;;;;0.40;0.20;;;;;;;19.13;100.00;99745.81;5034216;28;20839;-50
2022/06/30 02:47:16;;;;;;;0.40;0.20;;;;;;;19.21;100.00;99742.59;5025356;28;20463;-50
2022/06/30 02:49:42;;;;;;;0.40;0.20;;;;;;;19.33;100.00;99755.16;5034285;28;20452;-49
2022/06/30 02:52:09;;;;;;;0.40;0.30;;;;;;;19.41;100.00;99759.97;5034176;28;20444;-50
2022/06/30 02:54:35;;;;;;;0.40;0.20;;;;;;;19.22;100.00;99761.34;5028494;28;20475;-50
2022/06/30 02:57:02;;;;;;;0.40;0.20;;;;;;;19.04;100.00;99762.63;5033600;28;20474;-50
2022/06/30 02:59:29;;;;;;;0.40;0.20;;;;;;;19.01;100.00;99760.19;5034195;28;20459;-50
2022/06/30 03:01:55;;;;;;;0.40;0.20;;;;;;;18.97;100.00;99758.69;5033815;28;21012;-50
2022/06/30 03:04:22;;;;;;;0.40;0.20;;;;;;;18.98;100.00;99759.53;5034104;28;20523;-50
2022/06/30 03:06:49;;;;;;;0.40;0.20;;;;;;;18.94;100.00;99758.91;5033866;28;20454;-50
2022/06/30 03:09:16;;;;;;;0.40;0.20;;;;;;;19.12;100.00;99762.09;5033927;28;20448;-50
2022/06/30 03:11:42;;;;;;;0.40;0.20;;;;;;;18.91;100.00;99761.78;5029380;28;20454;-50
2022/06/30 03:14:18;;;;;;;1.27;0.60;;;;;;;18.79;100.00;99757.31;5026399;28;20470;-50
2022/06/30 03:16:46;;;;;;;0.40;0.20;;;;;;;18.88;100.00;99762.03;5033719;28;20451;-51
2022/06/30 03:19:12;;;;;;;0.40;0.20;;;;;;;18.81;100.00;99768.84;5033691;28;20517;-49
2022/06/30 03:21:39;;;;;;;0.40;0.20;;;;;;;18.85;100.00;99764.94;5020169;28;20492;-51
2022/06/30 03:24:06;;;;;;;0.40;0.30;;;;;;;18.90;100.00;99771.72;5021123;28;21011;-50
2022/06/30 03:26:32;;;;;;;0.40;0.20;;;;;;;18.94;100.00;99777.75;5033062;28;20818;-49
2022/06/30 03:28:59;;;;;;;0.40;0.20;;;;;;;18.98;100.00;99771.19;5033673;28;20455;-51
2022/06/30 03:31:25;;;;;;;0.40;0.20;;;;;;;18.78;100.00;99771.75;5033478;28;20444;-50
2022/06/30 03:33:52;;;;;;;0.40;0.20;;;;;;;18.84;100.00;99772.16;5033406;28;20475;-50
2022/06/30 03:36:18;;;;;;;0.40;0.20;;;;;;;18.50;100.00;99770.97;5033329;28;20474;-50
2022/06/30 03:38:45;;;;;;;0.40;0.27;;;;;;;18.51;100.00;99770.00;5033103;28;20452;-51
2022/06/30 03:41:11;;;;;;;0.40;0.20;;;;;;;18.65;100.00;99777.13;5033426;28;20500;-50
2022/06/30 03:43:38;;;;;;;0.40;0.20;;;;;;;18.51;100.00;99774.50;5033105;28;20474;-51
2022/06/30 03:46:04;;;;;;;0.40;0.20;;;;;;;18.68;100.00;99774.22;5030898;28;20452;-50
2022/06/30 03:48:31;;;;;;;0.50;0.50;;;;;;;18.69;100.00;99773.25;5026917;28;20470;-50
2022/06/30 03:50:57;;;;;;;0.40;0.20;;;;;;;18.68;100.00;99779.59;5033243;28;20448;-50
2022/06/30 03:53:24;;;;;;;0.40;0.20;;;;;;;18.76;100.00;99768.28;5027628;28;20551;-51
2022/06/30 03:55:50;;;;;;;0.40;0.20;;;;;;;18.74;100.00;99763.00;5033242;28;21012;-50
2022/06/30 03:58:16;;;;;;;0.40;0.20;;;;;;;18.70;100.00;99761.50;5034393;28;20533;-50
2022/06/30 04:00:43;;;;;;;0.40;0.20;;;;;;;18.45;100.00;99767.72;5033880;28;20451;-50
2022/06/30 04:03:09;;;;;;;0.40;0.30;;;;;;;18.60;100.00;99765.78;5032841;28;20471;-50
2022/06/30 04:05:38;;;;;;;0.40;0.20;;;;;;;18.76;100.00;99754.81;5032850;28;20447;-50
2022/06/30 04:08:05;;;;;;;0.40;0.20;;;;;;;18.86;100.00;99761.28;5032663;28;20936;-50
2022/06/30 04:10:31;;;;;;;0.50;0.30;;;;;;;18.79;100.00;99760.00;5032763;28;20945;-50
2022/06/30 04:12:58;;;;;;;0.57;0.57;;;;;;;18.96;100.00;99754.28;5032662;28;20455;-50
2022/06/30 04:15:24;;;;;;;0.40;0.20;;;;;;;19.16;100.00;99758.19;5032898;28;20466;-50
2022/06/30 04:17:51;;;;;;;0.40;0.30;;;;;;;19.27;100.00;99760.13;5032414;28;20467;-50
2022/06/30 04:20:17;;;;;;;0.40;0.20;;;;;;;19.43;100.00;99764.28;5025173;28;20449;-50
2022/06/30 04:22:49;;;;;;;0.40;0.20;;;;;;;19.42;100.00;99759.00;5025235;28;20576;-50
2022/06/30 04:25:16;;;;;;;0.40;0.20;;;;;;;19.40;100.00;99766.34;5032854;28;20451;-50
2022/06/30 04:27:48;;;;;;;0.40;0.20;;;;;;;19.52;100.00;99770.84;5032817;28;20454;-50
2022/06/30 04:30:15;;;;;;;0.40;0.30;;;;;;;20.25;100.00;99765.31;5033929;28;20444;-50
2022/06/30 04:32:42;;;;;;;0.40;0.20;;;;;;;20.46;100.00;99761.97;5032466;28;20544;-51
2022/06/30 04:35:11;;;;;;;0.50;0.30;;;;;;;21.27;100.00;99767.22;5031865;28;20475;-50
2022/06/30 04:37:40;;;;;;;0.40;0.20;;;;;;;22.09;95.85;99760.34;5032148;28;20467;-51
2022/06/30 04:42:52;;;;;;;0.40;0.20;;;;;;;22.80;91.88;99771.38;5007507;28;20577;-50
2022/06/30 04:45:19;;;;;;;0.40;0.20;;;;;;;23.45;88.76;99766.53;5032115;28;20456;-51
2022/06/30 04:47:45;;;;;;;0.40;0.20;;;;;;;23.88;87.59;99758.94;5023953;28;20463;-51
2022/06/30 04:50:12;;;;;;;0.40;0.20;;;;;;;23.79;87.23;99767.91;5032760;28;20515;-50
2022/06/30 04:52:38;;;;;;;0.40;0.20;;;;;;;23.83;86.44;99773.91;5032823;28;20451;-51
2022/06/30 04:55:05;;;;;;;0.40;0.20;;;;;;;24.06;86.24;99771.78;5027081;28;20478;-51
2022/06/30 04:57:32;;;;;;;0.40;0.30;;;;;;;24.00;85.52;99765.09;5032690;28;20452;-51
2022/06/30 04:59:58;;;;;;;0.40;0.20;;;;;;;24.17;85.56;99758.06;5032330;28;20452;-51
2022/06/30 05:02:26;;;;;;;0.40;0.20;;;;;;;24.24;84.66;99753.78;5032198;28;21054;-51
2022/06/30 05:04:53;;;;;;;0.40;0.20;;;;;;;24.40;84.18;99747.81;5032025;28;20470;-50
2022/06/30 05:07:21;;;;;;;0.40;0.20;;;;;;;24.56;83.37;99745.34;5032314;28;20456;-51
2022/06/30 05:09:48;;;;;;;0.40;0.20;;;;;;;24.59;82.74;99749.63;5031953;28;20497;-51
2022/06/30 05:12:14;;;;;;;0.40;0.20;;;;;;;24.61;83.44;99743.03;5032108;28;20447;-51
2022/06/30 05:14:41;;;;;;;0.40;0.20;;;;;;;24.76;82.90;99733.38;5031688;28;20472;-51
2022/06/30 05:17:07;;;;;;;0.40;0.20;;;;;;;24.61;82.48;99732.16;5032003;28;20815;-51
2022/06/30 05:19:34;;;;;;;0.40;0.20;;;;;;;24.58;83.02;99731.59;5031657;28;20455;-50
2022/06/30 05:22:00;;;;;;;0.40;0.20;;;;;;;25.17;81.56;99730.41;5032149;28;20590;-51
2022/06/30 05:27:26;;;;;;;0.40;0.20;;;;;;;25.07;81.96;99735.88;4998740;28;20482;-51
2022/06/30 05:29:54;;;;;;;0.40;0.20;;;;;;;25.52;79.83;99741.38;5031946;28;20551;-50
2022/06/30 05:32:20;;;;;;;0.40;0.20;;;;;;;25.62;78.98;99744.00;5031813;28;20439;-51
2022/06/30 05:34:47;;;;;;;0.40;0.20;;;;;;;25.51;80.22;99744.25;5031756;28;20473;-51
2022/06/30 05:37:13;;;;;;;0.40;0.20;;;;;;;25.45;80.48;99744.84;5031670;28;20454;-50
2022/06/30 05:39:40;;;;;;;0.40;0.30;;;;;;;25.40;80.13;99751.63;5031686;28;20444;-51
2022/06/30 05:42:06;;;;;;;0.40;0.20;;;;;;;25.45;79.81;99745.69;5031569;28;20491;-51
2022/06/30 05:44:33;;;;;;;1.03;1.03;;;;;;;25.27;80.01;99744.81;5031548;28;20996;-51
2022/06/30 05:46:59;;;;;;;0.40;0.20;;;;;;;25.56;79.13;99745.50;5024070;28;20464;-51
2022/06/30 05:49:26;;;;;;;0.40;0.20;;;;;;;25.56;78.77;99740.06;5035342;28;20448;-51
2022/06/30 05:51:53;;;;;;;1.40;0.50;;;;;;;25.43;80.32;99742.28;5035220;28;20447;-52
2022/06/30 05:54:19;;;;;;;0.40;0.20;;;;;;;25.56;79.99;99753.66;5028909;28;20566;-51
2022/06/30 05:56:47;;;;;;;1.67;1.57;;;;;;;26.00;78.18;99742.91;5035280;28;20868;-51
2022/06/30 05:59:14;;;;;;;1.07;1.07;;;;;;;26.19;77.76;99744.63;5035338;28;20447;-51
2022/06/30 06:01:40;;;;;;;0.40;0.20;;;;;;;26.17;76.88;99752.09;5034909;28;20483;-51
2022/06/30 06:04:07;;;;;;;0.40;0.30;;;;;;;25.92;77.20;99742.84;5035016;28;20932;-50
2022/06/30 06:06:33;;;;;;;0.40;0.30;;;;;;;26.44;76.34;99737.50;5034849;28;20454;-52
2022/06/30 06:09:00;;;;;;;0.40;0.30;;;;;;;26.04;77.14;99741.59;5034973;28;20456;-50
2022/06/30 06:11:26;;;;;;;0.50;0.50;;;;;;;26.67;74.82;99744.16;5035490;28;20925;-51
2022/06/30 06:13:53;;;;;;;4.73;1.23;;;;;;;26.62;75.57;99745.66;5035444;28;20558;-52
2022/06/30 06:16:20;;;;;;;0.40;0.20;;;;;;;26.43;76.12;99747.56;5034927;28;20458;-51
2022/06/30 06:18:46;;;;;;;0.40;0.20;;;;;;;26.14;76.75;99750.53;5034801;28;20459;-51
2022/06/30 06:21:13;;;;;;;0.40;0.20;;;;;;;26.67;75.87;99751.50;5034376;28;20459;-51
2022/06/30 06:23:45;;;;;;;0.40;0.20;;;;;;;27.06;75.31;99749.19;5025720;28;20470;-53
2022/06/30 06:26:12;;;;;;;0.50;0.50;;;;;;;26.86;74.66;99748.53;5018795;28;20462;-51
2022/06/30 06:31:24;;;;;;;0.40;0.20;;;;;;;27.11;74.02;99747.69;5010081;28;20451;-51
2022/06/30 06:33:50;;;;;;;0.40;0.30;;;;;;;27.03;75.20;99744.09;5034786;28;20499;-53
2022/06/30 06:36:17;;;;;;;0.40;0.30;;;;;;;27.01;74.06;99746.13;5034819;28;20454;-51
2022/06/30 06:38:43;;;;;;;0.40;0.30;;;;;;;27.14;75.10;99736.47;5034496;28;20455;-51
2022/06/30 06:41:10;;;;;;;0.40;0.20;;;;;;;27.16;75.33;99739.03;5008185;28;20478;-51
2022/06/30 06:43:36;;;;;;;0.40;0.20;;;;;;;27.42;74.79;99750.75;5034420;28;20495;-52
2022/06/30 06:46:03;;;;;;;0.40;0.20;;;;;;;26.69;74.77;99750.31;5032026;28;20452;-53
2022/06/30 06:48:30;;;;;;;0.40;0.30;;;;;;;27.54;72.91;99747.69;5027696;28;20969;-52
2022/06/30 06:50:59;;;;;;;0.40;0.30;;;;;;;27.24;74.30;99741.78;5034494;28;20538;-51
2022/06/30 06:53:26;;;;;;;0.40;0.20;;;;;;;27.36;75.19;99745.91;5028056;28;20472;-52
2022/06/30 06:55:52;;;;;;;0.40;0.20;;;;;;;27.18;75.80;99750.63;5034460;28;20480;-51
2022/06/30 06:58:20;;;;;;;0.40;0.20;;;;;;;27.61;74.50;99749.59;5033548;28;20463;-52
2022/06/30 07:00:46;;;;;;;0.40;0.20;;;;;;;27.59;73.82;99751.63;5034163;28;20452;-51
2022/06/30 07:03:13;;;;;;;0.40;0.30;;;;;;;28.14;73.21;99755.69;5020905;28;20499;-52
2022/06/30 07:05:40;;;;;;;0.50;0.30;;;;;;;28.03;73.16;99752.28;5034304;28;20794;-52
2022/06/30 07:08:06;;;;;;;0.40;0.20;;;;;;;28.10;73.34;99754.31;5034098;28;20452;-52
2022/06/30 07:10:33;;;;;;;0.40;0.37;;;;;;;28.01;74.71;99757.06;5033860;28;20907;-52
2022/06/30 07:13:00;;;;;;;0.87;0.87;;;;;;;27.74;74.81;99755.47;5033708;28;20450;-51
2022/06/30 07:15:27;;;;;;;0.40;0.30;;;;;;;27.82;74.52;99754.59;5033566;28;20528;-52
2022/06/30 07:17:53;;;;;;;0.40;0.20;;;;;;;27.88;74.78;99755.84;5033796;28;20448;-52
2022/06/30 07:20:20;;;;;;;0.40;0.30;;;;;;;27.63;75.25;99750.28;5033923;28;20637;-51
2022/06/30 07:22:46;;;;;;;0.63;0.60;;;;;;;27.73;75.51;99747.44;5032169;28;20491;-52
2022/06/30 07:25:19;;;;;;;0.40;0.20;;;;;;;27.88;75.69;99753.09;5023152;28;20441;-52
2022/06/30 07:27:46;;;;;;;0.40;0.30;;;;;;;28.14;75.11;99745.63;5033456;28;20454;-52
2022/06/30 07:30:18;;;;;;;0.40;0.20;;;;;;;28.16;74.89;99743.56;5033616;28;20429;-51
2022/06/30 07:32:44;;;;;;;0.40;0.23;;;;;;;27.87;75.98;99749.53;5030687;28;20427;-52
2022/06/30 07:35:11;;;;;;;0.40;0.30;;;;;;;28.40;75.28;99731.81;5023770;28;20462;-51
2022/06/30 07:37:38;;;;;;;0.40;0.20;;;;;;;28.46;74.68;99739.31;5033385;28;20447;-51
2022/06/30 07:40:06;;;;;;;2.20;1.27;;;;;;;28.53;74.72;99740.34;5033473;28;20444;-51
2022/06/30 07:42:35;;;;;;;0.43;0.40;;;;;;;28.75;74.62;99744.22;5033080;28;20499;-54
2022/06/30 07:45:06;;;;;;;0.40;0.30;;;;;;;28.49;74.09;99744.44;5033453;28;20525;-51
2022/06/30 07:47:33;;;;;;;0.43;0.33;;;;;;;28.47;74.25;99738.28;5024801;28;20456;-51
2022/06/30 07:49:59;;;;;;;0.50;0.30;;;;;;;28.74;74.68;99741.66;5033278;28;20458;-51
2022/06/30 07:52:26;;;;;;;7.50;0.70;;;;;;;28.76;74.01;99739.59;5033165;28;20529;-51
2022/06/30 07:54:53;;;;;;;0.40;0.20;;;;;;;28.83;74.54;99727.81;5027428;28;20455;-52
2022/06/30 07:57:20;;;;;;;4.10;2.83;;;;;;;28.08;76.75;99735.34;5032906;28;20447;-51
2022/06/30 07:59:58;;;;;;;1.63;1.53;;;;;;;28.65;74.44;99729.91;5033057;28;20498;-51
2022/06/30 08:02:24;;;;;;;0.40;0.20;;;;;;;28.40;75.03;99733.69;5032902;28;20527;-52
2022/06/30 08:04:51;;;;;;;0.40;0.30;;;;;;;28.49;74.55;99728.03;5032766;28;20508;-51
2022/06/30 08:07:17;;;;;;;0.40;0.40;;;;;;;29.31;72.44;99725.94;5032971;28;20422;-52
2022/06/30 08:09:44;;;;;;;0.40;0.30;;;;;;;29.05;73.05;99717.16;5032156;28;20475;-52
2022/06/30 08:12:11;;;;;;;0.40;0.30;;;;;;;28.72;73.97;99722.69;5032608;28;20439;-52
2022/06/30 08:14:38;;;;;;;0.43;0.33;;;;;;;28.97;72.65;99715.31;5032610;28;20450;-52
2022/06/30 08:17:05;;;;;;;1.13;1.13;;;;;;;29.14;72.34;99722.41;5032804;28;20969;-52
2022/06/30 08:19:33;;;;;;;0.47;0.40;;;;;;;29.22;72.38;99720.69;5032591;28;20491;-53
2022/06/30 08:21:59;;;;;;;0.40;0.30;;;;;;;29.22;70.60;99718.81;5032583;28;20582;-52
2022/06/30 08:24:26;;;;;;;0.40;0.30;;;;;;;29.15;73.43;99713.19;5020669;28;20450;-51
2022/06/30 08:26:53;;;;;;;0.40;0.23;;;;;;;29.36;72.59;99714.47;5033303;28;20448;-51
2022/06/30 08:29:19;;;;;;;0.40;0.30;;;;;;;29.62;69.61;99714.19;5032641;28;20426;-51
2022/06/30 08:31:46;;;;;;;0.47;0.40;;;;;;;29.91;70.01;99719.81;5032487;28;20509;-53
2022/06/30 08:34:12;;;;;;;0.40;0.20;;;;;;;30.30;66.00;99721.59;5032391;28;20470;-52
2022/06/30 08:36:39;;;;;;;0.40;0.30;;;;;;;30.40;65.05;99718.56;5032322;28;20452;-52
2022/06/30 08:42:02;;;;;;;0.40;0.30;;;;;;;30.32;65.44;99716.78;5032509;28;20422;-52
2022/06/30 08:42:04;;;;;;;0.40;0.30;;;;;;;30.27;64.99;99719.19;5032472;28;20448;-52
2022/06/30 08:44:33;;;;;;;0.40;0.30;;;;;;;31.17;60.00;99720.00;5032333;28;20443;-53
2022/06/30 08:47:02;;;;;;;0.40;0.30;;;;;;;30.35;60.99;99717.25;5023278;28;20435;-52
2022/06/30 08:49:29;;;;;;;0.40;0.30;;;;;;;29.76;63.48;99710.69;5032532;28;20450;-53
2022/06/30 08:51:57;;;;;;;0.40;0.30;;;;;;;30.51;61.47;99707.16;5032075;28;20938;-52
2022/06/30 08:54:26;;;;;;;2.00;0.97;;;;;;;30.33;62.45;99711.09;5025732;28;20465;-52
2022/06/30 08:56:54;;;;;;;0.40;0.30;;;;;;;30.28;62.29;99705.31;5032060;28;20433;-53
2022/06/30 08:59:22;;;;;;;0.40;0.30;;;;;;;29.99;61.20;99700.53;5032263;28;20422;-52
2022/06/30 09:01:55;;;;;;;0.40;0.30;;;;;;;29.89;60.59;99694.47;5032026;28;20963;-52
2022/06/30 09:04:22;;;;;;;0.40;0.40;;;;;;;29.96;60.39;99700.06;5032136;28;20447;-53
2022/06/30 09:06:48;;;;;;;0.40;0.30;;;;;;;30.20;60.27;99686.19;5032003;28;20501;-52
2022/06/30 09:09:15;;;;;;;0.40;0.30;;;;;;;30.28;60.59;99691.59;5032252;28;20451;-52
2022/06/30 09:11:56;;;;;;;1.50;0.80;;;;;;;30.58;59.63;99694.41;5030698;28;20470;-52
2022/06/30 09:14:34;;;;;;;0.40;0.30;;;;;;;30.98;57.90;99686.75;5031972;28;20471;-53
2022/06/30 09:17:03;;;;;;;0.87;0.87;;;;;;;30.98;55.06;99693.13;5032282;28;20535;-52
2022/06/30 09:19:30;;;;;;;1.43;0.90;;;;;;;31.26;51.33;99678.75;5031673;28;20601;-53
2022/06/30 09:22:31;;;;;;;0.40;0.30;;;;;;;31.26;50.05;99686.97;5033202;28;20848;-52
2022/06/30 09:25:04;;;;;;;0.40;0.30;;;;;;;30.86;49.51;99673.53;5012090;28;20478;-53
2022/06/30 09:27:33;;;;;;;0.40;0.30;;;;;;;31.63;49.54;99670.28;5035940;28;20514;-52
2022/06/30 09:30:09;;;;;;;0.40;0.30;;;;;;;30.64;51.62;99667.09;5035802;28;20938;-53
2022/06/30 09:32:45;;;;;;;0.40;0.30;;;;;;;31.09;50.59;99656.94;5035548;28;20493;-53
2022/06/30 09:35:12;;;;;;;0.40;0.30;;;;;;;31.30;51.63;99666.31;5035567;28;21009;-53
2022/06/30 09:37:39;;;;;;;0.43;0.30;;;;;;;31.74;46.98;99672.56;5035781;28;20513;-52
2022/06/30 09:40:07;;;;;;;0.40;0.30;;;;;;;31.93;46.29;99665.53;5035575;28;20945;-52
2022/06/30 09:42:37;;;;;;;0.40;0.30;;;;;;;32.23;44.06;99668.16;5035448;28;20487;-52
2022/06/30 09:45:36;;;;;;;0.50;0.40;;;;;;;32.23;45.12;99668.16;5035322;28;20432;-53
2022/06/30 09:48:03;;;;;;;0.40;0.30;;;;;;;32.12;44.25;99666.78;5026663;28;20437;-53
2022/06/30 09:50:30;;;;;;;0.40;0.30;;;;;;;31.85;45.31;99673.09;5035502;28;20516;-52
2022/06/30 09:53:07;;;;;;;0.40;0.30;;;;;;;31.43;45.62;99666.47;5032673;28;20535;-53
2022/06/30 09:55:51;;;;;;;1.33;1.33;;;;;;;30.91;46.85;99665.56;5033401;28;20517;-52
2022/06/30 09:58:30;;;;;;;0.40;0.30;;;;;;;30.94;46.34;99661.59;5035498;28;20448;-52
2022/06/30 10:00:59;;;;;;;0.83;0.83;;;;;;;31.68;45.51;99658.72;5035298;28;20999;-53
2022/06/30 10:03:33;;;;;;;0.40;0.30;;;;;;;31.44;45.54;99651.69;5031078;28;20472;-52
2022/06/30 10:06:10;;;;;;;0.40;0.30;;;;;;;31.68;44.69;99654.06;5026164;28;20895;-52
2022/06/30 10:08:37;;;;;;;0.40;0.30;;;;;;;31.14;44.25;99657.22;5034983;28;20453;-53
2022/06/30 10:11:05;;;;;;;0.40;0.30;;;;;;;31.51;44.33;99663.59;5034974;28;20911;-54
2022/06/30 10:13:40;;;;;;;0.40;0.30;;;;;;;31.55;45.07;99653.94;5034774;28;20449;-53
2022/06/30 10:16:08;;;;;;;0.40;0.27;;;;;;;31.78;44.57;99657.34;5034827;28;20927;-53
2022/06/30 10:18:39;;;;;;;0.40;0.30;;;;;;;31.45;43.40;99659.72;5034798;28;20470;-53
2022/06/30 10:21:08;;;;;;;0.40;0.30;;;;;;;31.53;45.50;99654.13;5035045;28;20495;-53
2022/06/30 10:23:35;;;;;;;0.40;0.30;;;;;;;31.58;43.29;99648.03;5026604;28;20892;-53
2022/06/30 10:26:02;;;;;;;0.43;0.33;;;;;;;31.66;43.33;99644.28;5030377;28;20455;-54
2022/06/30 10:28:29;;;;;;;0.40;0.30;;;;;;;32.25;43.74;99636.63;5034838;28;20451;-51
2022/06/30 10:31:22;;;;;;;0.40;0.37;;;;;;;32.96;41.17;99639.25;5034737;28;20474;-51
2022/06/30 10:34:02;;;;;;;0.40;0.30;;;;;;;32.00;44.50;99638.97;5033750;28;20475;-52
2022/06/30 10:36:32;;;;;;;0.50;0.40;;;;;;;31.61;45.18;99638.53;5034761;28;20425;-51
2022/06/30 10:39:10;;;;;;;0.40;0.30;;;;;;;31.54;43.75;99638.50;5035160;28;20429;-52
2022/06/30 10:41:45;;;;;;;0.40;0.40;;;;;;;31.67;43.48;99635.88;5034571;28;20451;-52
2022/06/30 10:44:15;;;;;;;0.40;0.30;;;;;;;31.14;44.92;99634.41;5034477;28;20501;-52
2022/06/30 10:46:44;;;;;;;0.40;0.30;;;;;;;30.91;45.29;99634.53;5026946;28;20435;-52
2022/06/30 10:49:12;;;;;;;0.40;0.30;;;;;;;31.23;42.81;99636.84;5033951;28;20539;-51
2022/06/30 10:51:39;;;;;;;0.40;0.30;;;;;;;31.36;42.97;99633.41;5034411;28;20911;-52
2022/06/30 10:54:06;;;;;;;0.40;0.40;;;;;;;31.32;41.36;99637.59;5028807;28;20468;-52
2022/06/30 10:56:54;;;;;;;0.40;0.30;;;;;;;31.51;41.57;99623.22;5034412;28;20455;-54
2022/06/30 10:59:31;;;;;;;0.40;0.30;;;;;;;31.26;41.52;99634.78;5014907;28;20430;-52
2022/06/30 11:02:07;;;;;;;0.40;0.30;;;;;;;31.16;41.28;99632.31;5034082;28;21030;-51
2022/06/30 11:04:44;;;;;;;0.50;0.50;;;;;;;31.32;42.16;99623.88;5033916;28;20513;-52
2022/06/30 11:07:22;;;;;;;0.40;0.30;;;;;;;31.99;42.80;99614.41;5034356;28;20433;-53
2022/06/30 11:09:52;;;;;;;0.40;0.30;;;;;;;31.99;42.19;99614.41;5033761;28;20798;-52
2022/06/30 11:12:41;;;;;;;0.40;0.30;;;;;;;31.35;42.84;99617.97;5034037;28;20452;-51
2022/06/30 11:15:10;;;;;;;0.40;0.30;;;;;;;31.14;43.60;99624.28;5033633;28;20844;-52
2022/06/30 11:17:39;;;;;;;0.40;0.30;;;;;;;30.84;43.35;99623.47;5033982;28;20464;-51
2022/06/30 11:20:08;;;;;;;1.03;0.93;;;;;;;31.15;43.93;99617.72;5033789;28;20925;-52
2022/06/30 11:22:36;;;;;;;0.40;0.20;;;;;;;31.31;43.49;99618.56;5033496;28;20430;-52
2022/06/30 11:25:08;;;;;;;0.40;0.30;;;;;;;31.58;42.66;99608.72;5009534;28;20538;-52
2022/06/30 11:27:36;;;;;;;0.40;0.30;;;;;;;31.54;41.86;99608.25;5033447;28;20535;-52
2022/06/30 11:30:09;;;;;;;0.40;0.30;;;;;;;32.01;41.47;99606.81;5033804;28;20452;-52
2022/06/30 11:32:37;;;;;;;0.40;0.30;;;;;;;32.10;40.92;99611.13;5032361;28;20426;-52
2022/06/30 11:35:04;;;;;;;0.40;0.30;;;;;;;31.86;41.48;99611.53;5033473;28;20493;-52
2022/06/30 11:37:35;;;;;;;0.40;0.30;;;;;;;31.52;41.96;99602.97;5033323;28;20826;-52
2022/06/30 11:40:08;;;;;;;0.40;0.30;;;;;;;32.18;42.14;99599.97;5033508;28;20450;-53
2022/06/30 11:42:35;;;;;;;0.40;0.30;;;;;;;31.63;42.12;99601.56;5033330;28;20573;-52
2022/06/30 11:45:14;;;;;;;0.40;0.30;;;;;;;32.31;39.89;99594.59;5033185;28;20878;-51